createdAt,value
2023-05-06T00:02:26.268Z,53.79
2023-05-06T00:04:56.958Z,53.95
2023-05-06T00:07:27.317Z,54.16
2023-05-06T00:10:01.861Z,54.31
2023-05-06T00:12:33.397Z,54.36
2023-05-06T00:15:04.170Z,54.45
2023-05-06T00:17:35.471Z,54.52
2023-05-06T00:20:09.301Z,54.62
2023-05-06T00:22:40.513Z,54.57
2023-05-06T00:25:12.909Z,54.78
2023-05-06T00:27:43.634Z,54.85
2023-05-06T00:30:16.312Z,54.98
2023-05-06T00:32:47.628Z,55.21
2023-05-06T00:35:18.935Z,55.16
2023-05-06T00:37:56.754Z,55.39
2023-05-06T00:40:28.112Z,55.48
2023-05-06T00:42:59.310Z,55.55
2023-05-06T00:45:31.132Z,55.78
2023-05-06T00:48:01.921Z,56.09
2023-05-06T00:50:33.054Z,55.95
2023-05-06T00:53:05.010Z,56.17
2023-05-06T00:55:35.791Z,56.06
2023-05-06T00:58:06.107Z,56.24
2023-05-06T01:00:38.595Z,56.25
2023-05-06T01:03:10.589Z,56.35
2023-05-06T01:05:50.359Z,56.61
2023-05-06T01:08:24.674Z,56.49
2023-05-06T01:10:56.416Z,56.76
2023-05-06T01:13:31.707Z,56.63
2023-05-06T01:16:04.275Z,56.99
2023-05-06T01:18:35.780Z,57.10
2023-05-06T01:21:09.857Z,57.13
2023-05-06T01:23:57.968Z,57.10
2023-05-06T01:26:29.084Z,57.21
2023-05-06T01:29:01.711Z,57.27
2023-05-06T01:31:42.905Z,57.39
2023-05-06T01:34:17.415Z,57.36
2023-05-06T01:36:58.683Z,57.33
2023-05-06T01:39:32.819Z,57.19
2023-05-06T01:42:04.493Z,57.12
2023-05-06T01:44:35.917Z,57.14
2023-05-06T01:47:07.487Z,57.26
2023-05-06T01:49:37.865Z,57.14
2023-05-06T01:52:10.384Z,57.34
2023-05-06T01:54:41.849Z,57.53
2023-05-06T01:57:15.061Z,57.44
2023-05-06T01:59:45.512Z,57.56
2023-05-06T02:02:17.778Z,57.73
2023-05-06T02:04:52.508Z,57.36
2023-05-06T02:07:24.374Z,57.62
2023-05-06T02:09:55.120Z,57.49
2023-05-06T02:12:26.996Z,57.62
2023-05-06T02:15:01.132Z,57.66
2023-05-06T02:17:32.111Z,57.71
2023-05-06T02:20:02.346Z,57.63
2023-05-06T02:22:32.727Z,57.78
2023-05-06T02:25:03.891Z,57.49
2023-05-06T02:27:34.562Z,57.37
2023-05-06T02:30:08.168Z,57.19
2023-05-06T02:32:40.244Z,57.11
2023-05-06T02:35:12.940Z,57.11
2023-05-06T02:37:47.903Z,56.49
2023-05-06T02:40:18.602Z,55.57
2023-05-06T02:42:48.874Z,54.69
2023-05-06T02:45:19.283Z,53.44
2023-05-06T02:47:49.676Z,52.23
2023-05-06T02:50:20.203Z,50.79
2023-05-06T02:52:50.696Z,49.47
2023-05-06T02:55:21.342Z,47.97
2023-05-06T02:57:52.480Z,46.43
2023-05-06T03:00:23.340Z,44.94
2023-05-06T03:02:53.991Z,43.39
2023-05-06T03:05:24.536Z,41.90
2023-05-06T03:07:54.991Z,40.61
2023-05-06T03:10:25.521Z,39.10
2023-05-06T03:12:55.852Z,37.84
2023-05-06T03:15:26.426Z,36.47
2023-05-06T03:17:56.934Z,35.30
2023-05-06T03:20:28.554Z,34.11
2023-05-06T03:22:58.786Z,33.08
2023-05-06T03:25:29.050Z,31.85
2023-05-06T03:27:59.243Z,30.66
2023-05-06T03:30:30.108Z,29.57
2023-05-06T03:33:03.138Z,28.86
2023-05-06T03:35:34.012Z,27.67
2023-05-06T03:38:04.637Z,26.83
2023-05-06T03:40:35.860Z,25.87
2023-05-06T03:43:07.649Z,25.07
2023-05-06T03:45:39.044Z,24.23
2023-05-06T03:48:09.604Z,23.32
2023-05-06T03:50:40.263Z,22.64
2023-05-06T03:53:10.564Z,22.09
2023-05-06T03:55:41.779Z,21.61
2023-05-06T03:58:12.852Z,21.03
2023-05-06T04:00:43.072Z,20.21
2023-05-06T04:03:14.825Z,19.72
2023-05-06T04:05:46.151Z,19.27
2023-05-06T04:08:17.060Z,18.90
2023-05-06T04:10:48.470Z,18.42
2023-05-06T04:13:19.460Z,17.88
2023-05-06T04:15:50.465Z,17.11
2023-05-06T04:18:21.413Z,16.73
2023-05-06T04:20:51.593Z,16.18
2023-05-06T04:23:22.901Z,15.76
2023-05-06T04:25:55.015Z,15.23
2023-05-06T04:28:25.390Z,14.88
2023-05-06T04:30:56.272Z,14.52
2023-05-06T04:33:27.157Z,14.04
2023-05-06T04:35:58.396Z,13.77
2023-05-06T04:38:31.677Z,13.43
2023-05-06T04:41:03.743Z,12.91
2023-05-06T04:43:34.421Z,12.74
2023-05-06T04:46:06.439Z,12.38
2023-05-06T04:48:39.133Z,11.76
2023-05-06T04:51:09.706Z,11.39
2023-05-06T04:53:40.981Z,11.28
2023-05-06T04:56:11.976Z,11.03
2023-05-06T04:58:46.166Z,10.75
2023-05-06T05:01:18.928Z,10.67
2023-05-06T05:03:49.677Z,10.33
2023-05-06T05:06:20.254Z,10.19
2023-05-06T05:08:50.773Z,10.22
2023-05-06T05:11:21.200Z,10.36
2023-05-06T05:13:51.547Z,10.32
2023-05-06T05:16:21.936Z,9.99
2023-05-06T05:18:52.473Z,9.82
2023-05-06T05:21:23.016Z,9.64
2023-05-06T05:23:53.360Z,9.57
2023-05-06T05:26:24.380Z,9.68
2023-05-06T05:28:54.898Z,9.23
2023-05-06T05:31:25.643Z,9.62
2023-05-06T05:33:56.323Z,9.50
2023-05-06T05:36:27.389Z,8.96
2023-05-06T05:38:58.210Z,8.70
2023-05-06T05:41:31.755Z,8.74
2023-05-06T05:44:00.746Z,8.80
2023-05-06T05:46:31.586Z,8.64
2023-05-06T05:49:02.101Z,8.44
2023-05-06T05:51:32.641Z,8.28
2023-05-06T05:54:02.928Z,8.19
2023-05-06T05:56:33.136Z,8.02
2023-05-06T05:59:03.504Z,7.75
2023-05-06T06:01:33.695Z,7.58
2023-05-06T06:04:04.214Z,7.53
2023-05-06T06:06:35.053Z,7.55
2023-05-06T06:09:05.612Z,7.44
2023-05-06T06:11:36.104Z,7.41
2023-05-06T06:14:08.127Z,7.13
2023-05-06T06:16:39.910Z,7.16
2023-05-06T06:19:10.542Z,6.68
2023-05-06T06:21:40.930Z,6.57
2023-05-06T06:24:11.252Z,6.81
2023-05-06T06:26:41.656Z,6.82
2023-05-06T06:29:12.325Z,6.87
2023-05-06T06:31:42.611Z,6.80
2023-05-06T06:34:13.137Z,6.70
2023-05-06T06:36:45.487Z,6.66
2023-05-06T06:39:16.150Z,6.87
2023-05-06T06:41:46.393Z,7.28
2023-05-06T06:44:16.901Z,7.32
2023-05-06T06:46:47.534Z,7.45
2023-05-06T06:49:18.309Z,7.38
2023-05-06T06:51:49.056Z,7.41
2023-05-06T06:54:19.382Z,7.38
2023-05-06T06:56:49.873Z,7.49
2023-05-06T06:59:20.065Z,7.53
2023-05-06T07:01:50.231Z,7.60
2023-05-06T07:04:20.630Z,7.65
2023-05-06T07:06:50.874Z,8.04
2023-05-06T07:09:22.055Z,8.98
2023-05-06T07:11:52.229Z,10.41
2023-05-06T07:14:23.117Z,11.53
2023-05-06T07:16:53.597Z,12.84
2023-05-06T07:19:24.065Z,14.01
2023-05-06T07:21:54.376Z,15.08
2023-05-06T07:24:25.136Z,15.57
2023-05-06T07:26:55.495Z,16.43
2023-05-06T07:29:26.131Z,17.29
2023-05-06T07:31:56.367Z,18.44
2023-05-06T07:34:26.721Z,19.12
2023-05-06T07:36:57.124Z,19.98
2023-05-06T07:39:27.512Z,20.44
2023-05-06T07:41:57.878Z,21.12
2023-05-06T07:44:28.086Z,21.53
2023-05-06T07:46:58.355Z,21.68
2023-05-06T07:49:31.230Z,21.76
2023-05-06T07:52:01.881Z,21.74
2023-05-06T07:54:32.475Z,21.72
2023-05-06T07:57:07.342Z,22.19
2023-05-06T07:59:37.970Z,22.27
2023-05-06T08:02:09.173Z,22.39
2023-05-06T08:04:41.602Z,22.72
2023-05-06T08:07:12.016Z,22.95
2023-05-06T08:09:42.530Z,23.07
2023-05-06T08:12:12.674Z,23.00
2023-05-06T08:14:42.918Z,23.33
2023-05-06T08:17:14.506Z,23.60
2023-05-06T08:19:44.644Z,24.16
2023-05-06T08:22:16.119Z,24.49
2023-05-06T08:24:47.172Z,24.94
2023-05-06T08:27:17.735Z,25.43
2023-05-06T08:29:48.550Z,25.39
2023-05-06T08:32:18.775Z,25.62
2023-05-06T08:34:49.378Z,26.19
2023-05-06T08:37:19.953Z,26.12
2023-05-06T08:39:50.422Z,26.26
2023-05-06T08:42:20.736Z,26.36
2023-05-06T08:44:53.041Z,26.13
2023-05-06T08:47:23.623Z,26.44
2023-05-06T08:49:54.408Z,26.78
2023-05-06T08:52:24.814Z,26.58
2023-05-06T08:55:01.048Z,26.42
2023-05-06T08:57:34.858Z,26.68
2023-05-06T09:00:10.670Z,26.59
2023-05-06T09:02:43.130Z,26.44
2023-05-06T09:05:14.314Z,26.40
2023-05-06T09:07:44.590Z,27.02
2023-05-06T09:10:18.054Z,26.88
2023-05-06T09:12:48.487Z,26.86
2023-05-06T09:15:20.887Z,26.35
2023-05-06T09:17:51.770Z,26.40
2023-05-06T09:20:32.121Z,26.47
2023-05-06T09:23:08.141Z,26.72
2023-05-06T09:25:39.796Z,25.98
2023-05-06T09:28:16.742Z,26.30
2023-05-06T09:30:48.022Z,25.97
2023-05-06T09:33:18.405Z,25.72
2023-05-06T09:35:49.754Z,25.41
2023-05-06T09:38:21.502Z,25.48
2023-05-06T09:40:52.089Z,25.12
2023-05-06T09:43:22.508Z,25.10
2023-05-06T09:45:52.946Z,25.24
2023-05-06T09:48:24.132Z,25.56
2023-05-06T09:50:54.984Z,25.70
2023-05-06T09:53:25.447Z,26.11
2023-05-06T09:55:57.487Z,26.11
2023-05-06T09:58:28.365Z,26.42
2023-05-06T10:00:59.334Z,26.42
2023-05-06T10:03:30.085Z,26.42
2023-05-06T10:06:03.306Z,26.06
2023-05-06T10:08:35.257Z,26.07
2023-05-06T10:11:07.293Z,26.25
2023-05-06T10:13:38.684Z,26.47
2023-05-06T10:16:10.142Z,26.25
2023-05-06T10:18:40.652Z,26.39
2023-05-06T10:21:21.848Z,26.73
2023-05-06T10:23:59.159Z,26.43
2023-05-06T10:26:31.485Z,26.24
2023-05-06T10:29:04.514Z,26.10
2023-05-06T10:31:36.284Z,26.09
2023-05-06T10:34:08.976Z,25.96
2023-05-06T10:36:40.862Z,26.01
2023-05-06T10:39:13.760Z,25.94
2023-05-06T10:41:44.066Z,25.87
2023-05-06T10:44:14.410Z,25.48
2023-05-06T10:47:00.940Z,25.27
2023-05-06T10:49:31.479Z,25.55
2023-05-06T10:52:19.170Z,25.54
2023-05-06T10:54:55.562Z,25.75
2023-05-06T10:57:27.292Z,25.69
2023-05-06T10:59:57.728Z,25.74
2023-05-06T11:02:31.876Z,25.08
2023-05-06T11:05:03.472Z,24.95
2023-05-06T11:07:33.893Z,25.35
2023-05-06T11:10:07.122Z,25.17
2023-05-06T11:12:49.133Z,24.49
2023-05-06T11:15:26.588Z,24.23
2023-05-06T11:17:57.962Z,24.28
2023-05-06T11:20:28.264Z,24.80
2023-05-06T11:22:58.644Z,25.16
2023-05-06T11:25:42.141Z,25.41
2023-05-06T11:28:14.379Z,25.68
2023-05-06T11:30:45.875Z,26.00
2023-05-06T11:33:19.537Z,25.81
2023-05-06T11:35:49.946Z,26.05
2023-05-06T11:38:21.399Z,26.08
2023-05-06T11:40:51.965Z,26.56
2023-05-06T11:43:22.439Z,26.65
2023-05-06T11:45:52.849Z,26.69
2023-05-06T11:48:23.923Z,26.88
2023-05-06T11:50:55.441Z,27.40
2023-05-06T11:53:26.103Z,27.25
2023-05-06T11:55:56.713Z,27.32
2023-05-06T11:58:28.164Z,27.24
2023-05-06T12:00:59.892Z,26.98
2023-05-06T12:03:31.911Z,26.81
2023-05-06T12:06:03.387Z,26.68
2023-05-06T12:08:34.707Z,26.50
2023-05-06T12:11:07.042Z,27.11
2023-05-06T12:13:37.963Z,27.42
2023-05-06T12:16:11.758Z,27.89
2023-05-06T12:18:42.414Z,27.60
2023-05-06T12:21:14.286Z,27.58
2023-05-06T12:23:53.783Z,27.24
2023-05-06T12:26:24.309Z,27.24
2023-05-06T12:29:10.647Z,27.27
2023-05-06T12:31:41.521Z,27.01
2023-05-06T12:34:11.997Z,26.79
2023-05-06T12:36:43.906Z,26.77
2023-05-06T12:39:15.227Z,27.27
2023-05-06T12:41:46.660Z,27.26
2023-05-06T12:44:33.798Z,27.03
2023-05-06T12:47:07.114Z,27.14
2023-05-06T12:49:49.227Z,27.28
2023-05-06T12:52:21.347Z,27.43
2023-05-06T12:54:53.369Z,28.04
2023-05-06T12:57:23.920Z,28.21
2023-05-06T12:59:55.963Z,28.29
2023-05-06T13:02:26.669Z,27.92
2023-05-06T13:04:58.062Z,27.90
2023-05-06T13:07:28.462Z,28.17
2023-05-06T13:10:02.633Z,28.19
2023-05-06T13:12:34.177Z,28.49
2023-05-06T13:15:05.135Z,28.59
2023-05-06T13:17:35.610Z,28.86
2023-05-06T13:20:07.957Z,29.12
2023-05-06T13:22:53.210Z,29.09
2023-05-06T13:25:25.538Z,28.94
2023-05-06T13:27:56.215Z,28.86
2023-05-06T13:30:26.806Z,28.99
2023-05-06T13:32:57.645Z,28.56
2023-05-06T13:35:28.724Z,28.72
2023-05-06T13:37:59.094Z,28.99
2023-05-06T13:40:29.734Z,28.89
2023-05-06T13:43:00.136Z,29.08
2023-05-06T13:45:30.760Z,29.32
2023-05-06T13:48:03.220Z,29.28
2023-05-06T13:50:35.702Z,29.41
2023-05-06T13:53:06.346Z,29.60
2023-05-06T13:55:37.429Z,29.64
2023-05-06T13:58:08.160Z,29.75
2023-05-06T14:00:38.781Z,29.84
2023-05-06T14:03:09.783Z,29.77
2023-05-06T14:05:40.205Z,29.85
2023-05-06T14:08:10.759Z,29.76
2023-05-06T14:10:43.778Z,29.78
2023-05-06T14:13:14.540Z,29.83
2023-05-06T14:15:48.603Z,29.94
2023-05-06T14:18:19.001Z,29.84
2023-05-06T14:20:49.460Z,29.92
2023-05-06T14:23:19.765Z,30.15
2023-05-06T14:25:50.554Z,30.37
2023-05-06T14:28:21.043Z,30.50
2023-05-06T14:30:51.826Z,30.62
2023-05-06T14:33:23.711Z,30.67
2023-05-06T14:35:54.374Z,30.63
2023-05-06T14:38:24.942Z,30.52
2023-05-06T14:40:56.058Z,30.68
2023-05-06T14:43:26.966Z,30.74
2023-05-06T14:45:57.242Z,30.86
2023-05-06T14:48:27.691Z,31.08
2023-05-06T14:50:58.006Z,30.94
2023-05-06T14:53:28.754Z,31.15
2023-05-06T14:55:59.081Z,31.15
2023-05-06T14:58:29.546Z,31.30
2023-05-06T15:01:00.017Z,31.20
2023-05-06T15:03:30.328Z,31.23
2023-05-06T15:06:00.873Z,31.33
2023-05-06T15:08:31.240Z,31.28
2023-05-06T15:11:03.849Z,31.27
2023-05-06T15:13:34.755Z,31.38
2023-05-06T15:16:05.710Z,31.50
2023-05-06T15:18:37.763Z,31.60
2023-05-06T15:21:08.699Z,31.85
2023-05-06T15:23:39.411Z,31.93
2023-05-06T15:26:09.965Z,32.27
2023-05-06T15:28:41.238Z,32.52
2023-05-06T15:31:12.671Z,32.82
2023-05-06T15:33:43.508Z,33.13
2023-05-06T15:36:14.351Z,33.16
2023-05-06T15:39:00.342Z,33.44
2023-05-06T15:41:32.513Z,33.77
2023-05-06T15:46:36.246Z,34.04
2023-05-06T15:51:40.496Z,34.47
2023-05-06T15:54:10.858Z,35.19
2023-05-06T15:56:42.145Z,35.87
2023-05-06T15:59:12.787Z,35.77
2023-05-06T16:02:24.413Z,35.56
2023-05-06T16:04:33.936Z,35.52
2023-05-06T16:07:04.687Z,35.68
2023-05-06T16:09:35.148Z,35.71
2023-05-06T16:12:06.683Z,36.02
2023-05-06T16:14:37.402Z,36.42
2023-05-06T16:17:10.830Z,36.70
2023-05-06T16:19:41.870Z,37.09
2023-05-06T16:22:12.905Z,37.34
2023-05-06T16:24:43.423Z,37.81
2023-05-06T16:27:16.617Z,38.14
2023-05-06T16:29:47.181Z,38.16
2023-05-06T16:32:17.686Z,38.47
2023-05-06T16:34:47.943Z,39.15
2023-05-06T16:37:18.300Z,39.43
2023-05-06T16:39:49.192Z,39.87
2023-05-06T16:42:19.600Z,39.96
2023-05-06T16:44:50.533Z,39.94
2023-05-06T16:47:24.310Z,40.38
2023-05-06T16:49:55.455Z,40.62
2023-05-06T16:52:26.541Z,40.65
2023-05-06T16:55:04.558Z,40.77
2023-05-06T16:57:35.724Z,41.08
2023-05-06T17:00:12.224Z,41.18
2023-05-06T17:02:44.301Z,41.33
2023-05-06T17:05:15.328Z,41.40
2023-05-06T17:07:46.128Z,41.49
2023-05-06T17:10:16.413Z,41.67
2023-05-06T17:12:47.056Z,41.71
2023-05-06T17:15:17.640Z,41.79
2023-05-06T17:17:48.039Z,42.11
2023-05-06T17:20:20.639Z,42.28
2023-05-06T17:22:51.671Z,42.50
2023-05-06T17:25:24.347Z,42.75
2023-05-06T17:27:55.015Z,42.93
2023-05-06T17:30:25.740Z,43.19
2023-05-06T17:32:56.561Z,43.61
2023-05-06T17:35:27.115Z,43.62
2023-05-06T17:37:58.508Z,43.77
2023-05-06T17:40:29.480Z,43.81
2023-05-06T17:43:00.406Z,43.81
2023-05-06T17:45:31.949Z,44.19
2023-05-06T17:48:04.568Z,44.39
2023-05-06T17:50:36.607Z,44.53
2023-05-06T17:53:12.066Z,44.53
2023-05-06T17:55:46.702Z,44.72
2023-05-06T17:58:19.747Z,44.81
2023-05-06T18:00:50.435Z,44.94
2023-05-06T18:03:21.285Z,45.24
2023-05-06T18:05:53.170Z,45.47
2023-05-06T18:08:29.522Z,45.28
2023-05-06T18:11:01.300Z,45.50
2023-05-06T18:13:34.428Z,45.35
2023-05-06T18:16:04.953Z,45.48
2023-05-06T18:18:35.494Z,45.61
2023-05-06T18:21:06.211Z,45.90
2023-05-06T18:23:36.438Z,45.86
2023-05-06T18:26:07.931Z,45.91
2023-05-06T18:28:40.864Z,45.86
2023-05-06T18:31:11.315Z,46.06
2023-05-06T18:33:41.696Z,46.12
2023-05-06T18:36:15.234Z,46.24
2023-05-06T18:38:45.781Z,46.47
2023-05-06T18:41:17.940Z,46.59
2023-05-06T18:43:48.649Z,46.57
2023-05-06T18:46:19.049Z,46.73
2023-05-06T18:48:49.347Z,46.87
2023-05-06T18:51:20.444Z,46.92
2023-05-06T18:53:51.951Z,47.16
2023-05-06T18:56:22.632Z,47.53
2023-05-06T18:58:52.862Z,47.70
2023-05-06T19:01:23.542Z,47.77
2023-05-06T19:03:53.817Z,48.02
2023-05-06T19:06:24.333Z,48.16
2023-05-06T19:08:54.670Z,47.99
2023-05-06T19:11:24.923Z,47.76
2023-05-06T19:13:55.182Z,47.58
2023-05-06T19:16:26.669Z,47.70
2023-05-06T19:18:57.246Z,47.87
2023-05-06T19:21:28.017Z,48.10
2023-05-06T19:23:59.560Z,48.18
2023-05-06T19:26:29.980Z,48.56
2023-05-06T19:29:00.560Z,48.59
2023-05-06T19:31:31.894Z,48.37
2023-05-06T19:34:02.404Z,48.56
2023-05-06T19:36:35.375Z,48.67
2023-05-06T19:39:06.199Z,49.19
2023-05-06T19:41:36.596Z,49.18
2023-05-06T19:44:07.766Z,49.39
2023-05-06T19:46:39.104Z,49.65
2023-05-06T19:49:09.516Z,49.63
2023-05-06T19:51:39.757Z,49.77
2023-05-06T19:54:10.127Z,49.96
2023-05-06T19:56:41.050Z,50.07
2023-05-06T19:59:11.348Z,50.13
2023-05-06T20:01:41.622Z,50.15
2023-05-06T20:04:11.937Z,50.29
2023-05-06T20:06:42.313Z,50.32
2023-05-06T20:09:12.661Z,50.38
2023-05-06T20:11:42.937Z,50.42
2023-05-06T20:14:13.317Z,50.39
2023-05-06T20:16:43.730Z,50.40
2023-05-06T20:19:13.953Z,50.54
2023-05-06T20:21:44.275Z,50.64
2023-05-06T20:24:15.255Z,50.75
2023-05-06T20:26:45.812Z,50.74
2023-05-06T20:29:17.781Z,50.94
2023-05-06T20:31:48.698Z,50.87
2023-05-06T20:34:19.296Z,50.88
2023-05-06T20:36:49.688Z,50.72
2023-05-06T20:39:20.130Z,50.74
2023-05-06T20:41:50.608Z,50.67
2023-05-06T20:44:21.793Z,50.59
2023-05-06T20:46:52.438Z,50.31
2023-05-06T20:49:25.022Z,50.41
2023-05-06T20:51:56.857Z,50.15
2023-05-06T20:54:27.396Z,50.13
2023-05-06T20:56:58.248Z,50.12
2023-05-06T20:59:29.186Z,50.17
2023-05-06T21:01:59.898Z,50.20
2023-05-06T21:04:30.318Z,50.02
2023-05-06T21:07:00.717Z,49.98
2023-05-06T21:09:30.929Z,49.97
2023-05-06T21:12:01.182Z,49.89
2023-05-06T21:14:31.776Z,49.98
2023-05-06T21:17:02.120Z,50.10
2023-05-06T21:19:32.786Z,50.06
2023-05-06T21:22:02.984Z,50.05
2023-05-06T21:24:33.228Z,50.26
2023-05-06T21:27:03.404Z,50.56
2023-05-06T21:29:33.734Z,50.57
2023-05-06T21:32:05.023Z,50.53
2023-05-06T21:34:35.394Z,50.59
2023-05-06T21:37:06.143Z,50.59
2023-05-06T21:39:36.653Z,50.55
2023-05-06T21:42:08.620Z,50.54
2023-05-06T21:44:39.113Z,50.48
2023-05-06T21:47:09.588Z,50.69
2023-05-06T21:49:39.810Z,50.75
2023-05-06T21:52:10.353Z,50.66
2023-05-06T21:54:40.943Z,50.73
2023-05-06T21:57:12.395Z,50.80
2023-05-06T21:59:42.777Z,50.74
2023-05-06T22:02:13.012Z,50.73
2023-05-06T22:04:43.549Z,50.70
2023-05-06T22:07:14.124Z,50.77
2023-05-06T22:09:44.497Z,50.73
2023-05-06T22:12:15.284Z,50.76
2023-05-06T22:14:45.744Z,50.90
2023-05-06T22:17:16.181Z,50.85
2023-05-06T22:19:46.699Z,50.84
2023-05-06T22:22:17.664Z,50.91
2023-05-06T22:24:48.819Z,51.04
2023-05-06T22:27:19.236Z,50.93
2023-05-06T22:29:49.751Z,51.21
2023-05-06T22:32:21.347Z,51.25
2023-05-06T22:34:51.747Z,51.23
2023-05-06T22:37:22.267Z,51.21
2023-05-06T22:39:53.071Z,51.16
2023-05-06T22:42:24.098Z,51.34
2023-05-06T22:44:54.785Z,51.26
2023-05-06T22:47:25.140Z,51.40
2023-05-06T22:49:55.508Z,51.24
2023-05-06T22:52:25.732Z,51.26
2023-05-06T22:54:57.051Z,51.34
2023-05-06T22:57:27.706Z,51.08
2023-05-06T22:59:58.327Z,50.80
2023-05-06T23:02:29.284Z,50.39
2023-05-06T23:05:00.015Z,50.12
2023-05-06T23:07:30.470Z,50.23
2023-05-06T23:10:00.684Z,50.32
2023-05-06T23:12:34.578Z,50.29
2023-05-06T23:15:05.856Z,50.55
2023-05-06T23:17:36.177Z,50.81
2023-05-06T23:20:07.782Z,51.41
2023-05-06T23:22:38.241Z,51.94
2023-05-06T23:25:11.636Z,52.44
2023-05-06T23:27:42.922Z,52.47
2023-05-06T23:30:14.838Z,52.77
2023-05-06T23:32:44.970Z,52.87
2023-05-06T23:35:15.295Z,52.71
2023-05-06T23:37:45.719Z,52.78
2023-05-06T23:40:16.684Z,52.74
2023-05-06T23:42:47.094Z,52.80
2023-05-06T23:45:18.264Z,52.72
2023-05-06T23:47:48.654Z,52.74
2023-05-06T23:50:19.405Z,52.84
2023-05-06T23:52:49.968Z,53.13
2023-05-06T23:55:20.676Z,53.19
2023-05-06T23:57:50.927Z,53.39
